Time;durP1;ratioP1;P1;durP2;ratioP2;P2;SDS_P1;SDS_P2;PMS_P1;PMS_P2;Temp;Humidity;BMP_temperature;BMP_pressure;BME280_temperature;BME280_humidity;BME280_pressure;Samples;Min_cycle;Max_cycle;Signal;HPM_P1;HPM_P2
2021/07/19 00:01:16;;;;;;;18.75;12.85;;;;;;;23.56;72.93;99556.81;1789606;78;22414;-76
2021/07/19 00:03:43;;;;;;;16.00;12.65;;;;;;;23.54;72.96;99559.71;1811896;77;21374;-76
2021/07/19 00:06:10;;;;;;;16.77;12.88;;;;;;;23.53;72.97;99559.95;1808618;77;21465;-76
2021/07/19 00:08:36;;;;;;;16.82;13.00;;;;;;;23.50;73.02;99565.27;1854399;77;21635;-76
2021/07/19 00:11:04;;;;;;;14.15;12.30;;;;;;;23.49;73.08;99562.80;1854367;77;20920;-76
2021/07/19 00:13:31;;;;;;;14.63;13.18;;;;;;;23.45;73.16;99562.94;1854472;77;21832;-76
2021/07/19 00:16:00;;;;;;;14.53;12.50;;;;;;;23.41;73.24;99562.05;1835091;76;21451;-76
2021/07/19 00:18:27;;;;;;;16.73;12.15;;;;;;;23.37;73.36;99559.52;1854411;77;21007;-76
2021/07/19 00:20:54;;;;;;;17.35;13.15;;;;;;;23.34;73.39;99565.34;1842165;77;21030;-76
2021/07/19 00:23:20;;;;;;;14.25;12.23;;;;;;;23.33;73.46;99562.34;1822082;77;21031;-76
2021/07/19 00:25:48;;;;;;;16.32;13.03;;;;;;;23.31;73.52;99548.81;1805922;77;21847;-76
2021/07/19 00:28:16;;;;;;;14.03;12.58;;;;;;;23.28;73.53;99557.35;1788561;80;21408;-76
2021/07/19 00:30:44;;;;;;;14.93;12.33;;;;;;;23.24;73.62;99556.95;1756744;80;20948;-76
2021/07/19 00:33:11;;;;;;;15.13;12.88;;;;;;;23.20;73.68;99558.46;1789696;78;20968;-77
2021/07/19 00:35:38;;;;;;;15.03;11.97;;;;;;;23.16;73.82;99564.50;1836130;77;21510;-76
2021/07/19 00:38:05;;;;;;;17.48;12.50;;;;;;;23.12;73.93;99557.41;1820129;78;22447;-77
2021/07/19 00:40:32;;;;;;;14.58;12.30;;;;;;;23.10;74.01;99558.16;1788811;80;21004;-76
2021/07/19 00:42:59;;;;;;;18.82;13.35;;;;;;;23.08;74.10;99558.38;1788685;78;21104;-75
2021/07/19 00:45:28;;;;;;;13.98;12.50;;;;;;;23.05;74.17;99559.33;1834409;77;21531;-76
2021/07/19 00:47:57;;;;;;;16.10;12.60;;;;;;;23.04;74.28;99567.11;1788666;80;20979;-75
2021/07/19 00:50:27;;;;;;;14.60;13.03;;;;;;;23.02;74.33;99567.34;1789646;78;20908;-76
2021/07/19 00:52:57;;;;;;;17.20;12.50;;;;;;;23.02;74.35;99570.03;1788890;80;21007;-76
2021/07/19 00:55:43;;;;;;;16.90;12.95;;;;;;;23.01;74.33;99579.16;1804604;77;20976;-76
2021/07/19 00:58:12;;;;;;;16.10;13.10;;;;;;;22.97;74.34;99569.89;1818781;78;21475;-76
2021/07/19 01:00:46;;;;;;;20.02;13.08;;;;;;;22.93;74.43;99571.89;1820957;78;21035;-75
2021/07/19 01:03:15;;;;;;;17.75;13.00;;;;;;;22.89;74.47;99573.39;1769873;80;22209;-75
2021/07/19 01:05:42;;;;;;;16.97;13.38;;;;;;;22.87;74.49;99575.45;1793498;79;20969;-76
2021/07/19 01:08:10;;;;;;;17.75;13.22;;;;;;;22.81;74.56;99573.94;1750256;81;21464;-75
2021/07/19 01:10:38;;;;;;;15.43;13.18;;;;;;;22.79;74.59;99575.20;1772361;81;21024;-76
2021/07/19 01:13:06;;;;;;;15.38;12.35;;;;;;;22.73;74.68;99570.69;1772140;81;20945;-76
2021/07/19 01:15:37;;;;;;;19.15;13.15;;;;;;;22.71;74.85;99571.44;1779565;79;22476;-76
2021/07/19 01:18:06;;;;;;;15.80;13.18;;;;;;;22.68;74.83;99574.55;1741495;82;21412;-76
2021/07/19 01:20:51;;;;;;;16.50;13.00;;;;;;;22.65;74.92;99577.69;1741730;82;20948;-76
2021/07/19 01:23:59;;;;;;;17.00;13.50;;;;;;;22.62;75.01;99574.92;1741442;82;21043;-76
2021/07/19 01:26:53;;;;;;;17.77;13.38;;;;;;;22.60;75.12;99578.36;1743654;81;20972;-75
2021/07/19 01:29:21;;;;;;;17.10;14.25;;;;;;;22.59;75.19;99577.24;1741536;82;20969;-75
2021/07/19 01:31:47;;;;;;;17.98;13.70;;;;;;;22.56;75.25;99577.95;1741418;82;21012;-75
2021/07/19 01:34:23;;;;;;;18.17;14.25;;;;;;;22.54;75.30;99580.57;1747208;79;22044;-76
2021/07/19 01:36:58;;;;;;;17.12;14.18;;;;;;;22.52;75.36;99579.45;1763535;81;21020;-75
2021/07/19 01:39:32;;;;;;;16.20;13.35;;;;;;;22.50;75.40;99578.03;1771654;80;21439;-75
2021/07/19 01:42:01;;;;;;;15.20;13.78;;;;;;;22.48;75.46;99578.22;1754914;80;21760;-75
2021/07/19 01:44:28;;;;;;;16.17;14.40;;;;;;;22.46;75.56;99578.97;1785074;78;21033;-75
2021/07/19 01:46:55;;;;;;;16.07;13.48;;;;;;;22.44;75.63;99570.30;1750427;80;20953;-75
2021/07/19 01:49:23;;;;;;;16.67;13.93;;;;;;;22.43;75.68;99570.00;1763691;81;21494;-75
2021/07/19 01:51:51;;;;;;;16.42;14.33;;;;;;;22.41;75.74;99566.70;1741917;82;21056;-76
2021/07/19 01:54:21;;;;;;;18.57;14.68;;;;;;;22.40;75.79;99565.58;1756836;79;21421;-75
2021/07/19 01:56:49;;;;;;;16.65;14.70;;;;;;;22.38;75.93;99568.98;1758030;79;21083;-75
2021/07/19 01:59:16;;;;;;;17.10;14.83;;;;;;;22.36;75.99;99571.08;1743163;81;21440;-75
2021/07/19 02:01:45;;;;;;;18.12;15.35;;;;;;;22.33;76.11;99579.59;1740139;82;21512;-75
2021/07/19 02:04:11;;;;;;;18.42;15.10;;;;;;;22.31;76.18;99569.06;1783964;77;21019;-75
2021/07/19 02:06:44;;;;;;;16.90;14.65;;;;;;;22.31;76.23;99577.65;1840782;77;21831;-75
2021/07/19 02:09:11;;;;;;;17.95;15.90;;;;;;;22.31;76.34;99572.27;1854561;77;21015;-75
2021/07/19 02:11:42;;;;;;;18.10;15.13;;;;;;;22.29;76.44;99576.50;1852304;77;20960;-76
2021/07/19 02:14:10;;;;;;;17.95;15.20;;;;;;;22.27;76.51;99580.75;1854201;77;21472;-76
2021/07/19 02:16:41;;;;;;;17.55;15.65;;;;;;;22.26;76.54;99584.48;1821253;77;20936;-75
2021/07/19 02:19:08;;;;;;;17.80;15.48;;;;;;;22.24;76.62;99583.89;1841344;77;21781;-75
2021/07/19 02:21:36;;;;;;;18.30;15.38;;;;;;;22.25;76.64;99588.22;1788929;78;20977;-75
2021/07/19 02:24:26;;;;;;;18.87;16.00;;;;;;;22.25;76.73;99593.60;1789255;78;21039;-76
2021/07/19 02:26:53;;;;;;;17.62;15.80;;;;;;;22.24;76.82;99587.92;1814285;77;20949;-75
2021/07/19 02:29:19;;;;;;;19.57;15.78;;;;;;;22.24;76.92;99585.75;1801664;78;21000;-75
2021/07/19 02:31:48;;;;;;;21.10;16.37;;;;;;;22.22;76.99;99590.01;1815638;78;21782;-75
2021/07/19 02:34:19;;;;;;;18.42;16.52;;;;;;;22.20;77.09;99582.69;1753323;80;21367;-75
2021/07/19 02:36:48;;;;;;;21.55;16.62;;;;;;;22.20;77.24;99589.41;1838689;77;20960;-75
2021/07/19 02:39:15;;;;;;;17.85;15.95;;;;;;;22.20;77.33;99590.75;1820826;78;21378;-75
2021/07/19 02:41:43;;;;;;;17.30;15.58;;;;;;;22.20;77.44;99582.69;1820793;78;20993;-75
2021/07/19 02:44:11;;;;;;;18.52;16.05;;;;;;;22.20;77.52;99582.69;1799620;78;22205;-75
2021/07/19 02:46:50;;;;;;;22.77;17.23;;;;;;;22.21;77.61;99582.16;1787393;78;21070;-76
2021/07/19 02:49:17;;;;;;;19.00;16.75;;;;;;;22.22;77.70;99590.53;1818784;78;21348;-76
2021/07/19 02:51:45;;;;;;;18.17;16.30;;;;;;;22.23;77.81;99587.62;1821098;78;21051;-75
2021/07/19 02:54:13;;;;;;;18.73;16.75;;;;;;;22.24;77.92;99587.92;1799599;78;20932;-75
2021/07/19 02:56:40;;;;;;;21.02;16.02;;;;;;;22.25;77.98;99591.44;1782955;77;22652;-75
2021/07/19 02:59:07;;;;;;;18.65;16.62;;;;;;;22.25;78.13;99589.56;1827559;77;20933;-75
2021/07/19 03:01:34;;;;;;;19.60;16.95;;;;;;;22.26;78.25;99595.25;1820812;78;20925;-75
2021/07/19 03:04:01;;;;;;;22.32;16.82;;;;;;;22.29;78.34;99593.98;1820612;78;20968;-75
2021/07/19 03:06:35;;;;;;;21.62;16.42;;;;;;;22.31;78.54;99594.61;1813846;77;20971;-75
2021/07/19 03:09:05;;;;;;;18.12;15.90;;;;;;;22.36;78.62;99596.64;1837729;77;22675;-75
2021/07/19 03:11:43;;;;;;;19.85;15.72;;;;;;;22.44;78.69;99596.37;1806188;78;21470;-75
2021/07/19 03:14:14;;;;;;;;;;;;;;;22.50;78.63;99598.22;1795834;77;21004;-75
2021/07/19 03:16:42;;;;;;;22.60;16.57;;;;;;;22.54;78.56;99595.38;1795849;77;20708;-75
2021/07/19 03:19:09;;;;;;;19.05;16.95;;;;;;;22.55;78.54;99597.84;1792249;78;21493;-75
2021/07/19 03:21:38;;;;;;;22.73;16.85;;;;;;;22.60;78.49;99596.37;1821064;78;22172;-75
2021/07/19 03:24:12;;;;;;;21.68;16.95;;;;;;;22.63;78.45;99597.28;1793518;77;20940;-75
2021/07/19 03:26:40;;;;;;;18.80;16.67;;;;;;;22.66;78.49;99592.80;1820569;77;21067;-75
2021/07/19 03:29:07;;;;;;;19.23;16.85;;;;;;;22.70;78.44;99592.16;1821229;78;20936;-75
2021/07/19 03:31:36;;;;;;;21.50;16.62;;;;;;;22.74;78.44;99592.00;1792648;78;20897;-75
2021/07/19 03:34:03;;;;;;;18.65;16.65;;;;;;;22.79;78.45;99597.56;1828549;77;22251;-76
2021/07/19 03:36:31;;;;;;;18.23;16.05;;;;;;;22.85;78.46;99597.22;1788620;80;20975;-75
2021/07/19 03:38:59;;;;;;;20.20;16.42;;;;;;;22.91;78.51;99604.95;1788687;80;20928;-75
2021/07/19 03:41:31;;;;;;;18.52;16.37;;;;;;;22.97;78.46;99600.02;1805616;77;21334;-75
2021/07/19 03:44:00;;;;;;;18.85;16.82;;;;;;;23.04;78.43;99604.82;1823720;77;21432;-76
2021/07/19 03:46:28;;;;;;;19.75;16.67;;;;;;;23.12;78.45;99608.06;1853620;77;21869;-76
2021/07/19 03:48:54;;;;;;;17.95;15.72;;;;;;;23.19;78.44;99603.97;1854454;77;21395;-76
2021/07/19 03:51:22;;;;;;;21.17;15.85;;;;;;;23.27;78.42;99610.94;1840725;77;20996;-76
2021/07/19 03:53:49;;;;;;;19.00;16.07;;;;;;;23.34;78.46;99600.37;1829707;77;21019;-77
2021/07/19 03:56:17;;;;;;;24.12;15.68;;;;;;;23.43;78.41;99600.38;1854193;77;21035;-78
2021/07/19 03:58:44;;;;;;;17.35;15.48;;;;;;;23.53;78.35;99605.77;1787516;77;22487;-78
2021/07/19 04:01:11;;;;;;;17.85;15.83;;;;;;;23.62;78.33;99607.97;1830783;77;20981;-74
2021/07/19 04:03:52;;;;;;;20.92;16.12;;;;;;;23.72;78.27;99612.02;1826196;77;21003;-76
2021/07/19 04:06:19;;;;;;;20.00;15.25;;;;;;;23.82;78.24;99614.47;1848275;77;21120;-76
2021/07/19 04:08:49;;;;;;;19.23;15.20;;;;;;;23.92;78.08;99619.33;1846290;77;21015;-76
2021/07/19 04:11:19;;;;;;;21.40;15.58;;;;;;;24.02;77.84;99616.09;1846584;77;22670;-75
2021/07/19 04:13:46;;;;;;;21.75;13.48;;;;;;;24.13;77.53;99615.34;1825836;77;21008;-75
2021/07/19 04:16:16;;;;;;;21.00;13.75;;;;;;;24.23;76.95;99608.88;1847496;77;20937;-75
2021/07/19 04:18:43;;;;;;;19.48;13.83;;;;;;;24.32;76.44;99615.62;1851386;77;20961;-76
2021/07/19 04:21:11;;;;;;;19.17;14.30;;;;;;;24.43;75.95;99612.13;1824588;77;20980;-74
2021/07/19 04:23:37;;;;;;;16.30;13.90;;;;;;;24.52;75.46;99616.67;1811683;78;22928;-74
2021/07/19 04:26:14;;;;;;;18.42;13.65;;;;;;;24.61;75.00;99619.34;1812812;78;20925;-74
2021/07/19 04:28:43;;;;;;;17.15;13.40;;;;;;;24.70;74.47;99623.85;1839270;77;20968;-73
2021/07/19 04:31:16;;;;;;;16.87;12.65;;;;;;;24.80;74.11;99620.90;1826200;76;21063;-75
2021/07/19 04:33:45;;;;;;;18.50;12.00;;;;;;;24.89;73.58;99624.05;1818138;77;21015;-75
2021/07/19 04:36:17;;;;;;;17.20;11.60;;;;;;;24.99;72.72;99624.83;1830012;77;22234;-76
2021/07/19 04:38:46;;;;;;;17.52;11.25;;;;;;;25.08;72.00;99625.63;1809865;77;20936;-77
2021/07/19 04:41:19;;;;;;;17.15;11.00;;;;;;;25.18;71.34;99626.92;1816819;77;20981;-76
2021/07/19 04:43:47;;;;;;;16.85;10.23;;;;;;;25.28;70.66;99620.39;1813910;77;21032;-76
2021/07/19 04:46:15;;;;;;;21.00;10.20;;;;;;;25.37;69.82;99617.63;1793483;78;21031;-76
2021/07/19 04:48:42;;;;;;;17.98;10.88;;;;;;;25.43;69.03;99616.69;1806818;77;22436;-76
2021/07/19 04:51:09;;;;;;;17.27;10.03;;;;;;;25.51;68.52;99614.98;1850369;77;20996;-75
2021/07/19 04:53:35;;;;;;;15.15;10.45;;;;;;;25.59;68.04;99615.16;1836061;77;21063;-79
2021/07/19 04:56:02;;;;;;;17.60;10.55;;;;;;;25.67;67.90;99611.55;1854377;77;21031;-78
2021/07/19 04:58:28;;;;;;;17.77;11.05;;;;;;;25.75;67.72;99616.30;1853736;77;21024;-79
2021/07/19 05:01:02;;;;;;;18.12;10.80;;;;;;;25.82;67.48;99610.23;1846883;77;22212;-79
2021/07/19 05:03:31;;;;;;;13.13;10.68;;;;;;;25.90;67.22;99612.03;1821085;77;20960;-79
2021/07/19 05:05:58;;;;;;;16.95;10.43;;;;;;;25.97;67.05;99613.25;1828310;77;21007;-79
2021/07/19 05:08:25;;;;;;;15.55;10.43;;;;;;;26.06;66.85;99613.16;1834804;77;21057;-81
2021/07/19 05:10:51;;;;;;;14.35;10.40;;;;;;;26.14;66.62;99615.45;1836415;77;21463;-79
2021/07/19 05:13:18;;;;;;;15.25;9.93;;;;;;;26.19;66.24;99610.16;1820966;78;21786;-79
2021/07/19 05:15:45;;;;;;;17.23;10.32;;;;;;;26.24;65.78;99608.06;1820811;78;20932;-79
2021/07/19 05:18:11;;;;;;;13.98;10.05;;;;;;;26.26;65.44;99615.43;1823095;77;20953;-79
2021/07/19 05:20:41;;;;;;;20.20;10.28;;;;;;;26.31;64.74;99611.98;1820145;78;20920;-79
2021/07/19 05:23:06;;;;;;;17.42;10.25;;;;;;;26.37;64.37;99618.64;1804293;77;20976;-79
2021/07/19 05:25:34;;;;;;;17.70;9.73;;;;;;;26.42;63.84;99616.00;1820807;78;22603;-79
2021/07/19 05:28:11;;;;;;;18.48;9.75;;;;;;;26.48;63.31;99610.16;1820822;78;20929;-79
2021/07/19 05:30:43;;;;;;;16.85;9.55;;;;;;;26.55;62.86;99612.72;1821246;78;20980;-79
2021/07/19 05:33:10;;;;;;;16.45;10.40;;;;;;;26.62;62.65;99610.12;1821094;78;21488;-80
2021/07/19 05:35:37;;;;;;;17.60;9.75;;;;;;;26.69;62.54;99605.37;1821184;78;20942;-79
2021/07/19 05:38:04;;;;;;;16.73;10.32;;;;;;;26.74;62.20;99599.23;1806203;77;22185;-79
2021/07/19 05:40:33;;;;;;;16.67;9.50;;;;;;;26.79;62.21;99606.89;1812194;78;20986;-77
2021/07/19 05:43:00;;;;;;;17.48;9.48;;;;;;;26.80;61.66;99602.29;1819607;78;20984;-78
2021/07/19 05:45:27;;;;;;;19.35;9.98;;;;;;;26.85;61.46;99600.21;1811042;77;21030;-79
2021/07/19 05:47:55;;;;;;;17.32;10.28;;;;;;;26.92;61.53;99603.02;1820854;77;20988;-76
2021/07/19 05:50:22;;;;;;;23.25;10.75;;;;;;;27.02;61.38;99603.70;1820703;78;21701;-77
2021/07/19 05:52:48;;;;;;;16.23;10.23;;;;;;;27.09;61.69;99602.50;1820155;78;20956;-77
2021/07/19 05:55:15;;;;;;;18.15;10.23;;;;;;;27.16;61.80;99598.27;1818539;78;21321;-77
2021/07/19 05:57:42;;;;;;;21.10;11.12;;;;;;;27.23;61.61;99605.70;1788427;78;21043;-79
2021/07/19 06:00:14;;;;;;;18.02;10.80;;;;;;;27.29;61.39;99606.04;1788707;80;20992;-78
2021/07/19 06:02:43;;;;;;;30.17;26.33;;;;;;;27.33;61.11;99611.27;1788689;80;21830;-77
2021/07/19 06:05:11;;;;;;;29.85;16.45;;;;;;;27.38;61.03;99605.08;1755571;80;20995;-78
2021/07/19 06:07:38;;;;;;;16.60;12.10;;;;;;;27.41;60.84;99604.60;1788587;80;21427;-77
2021/07/19 06:10:07;;;;;;;17.67;10.93;;;;;;;27.48;60.79;99601.14;1788542;80;20995;-78
2021/07/19 06:12:34;;;;;;;16.65;10.98;;;;;;;27.57;60.53;99598.82;1789665;78;21381;-78
2021/07/19 06:15:05;;;;;;;14.43;10.25;;;;;;;27.67;60.54;99597.63;1791322;77;21475;-77
2021/07/19 06:17:35;;;;;;;17.98;10.45;;;;;;;27.77;60.26;99601.81;1796059;77;21106;-76
2021/07/19 06:20:00;;;;;;;17.45;10.70;;;;;;;27.85;59.92;99600.02;1809645;78;21058;-75
2021/07/19 06:22:27;;;;;;;19.30;10.70;;;;;;;27.92;59.41;99599.83;1812584;77;21574;-77
2021/07/19 06:24:54;;;;;;;23.02;11.00;;;;;;;27.98;58.98;99604.22;1841611;77;20933;-75
2021/07/19 06:27:21;;;;;;;14.85;9.65;;;;;;;28.03;58.70;99596.15;1854350;77;21816;-75
2021/07/19 06:29:49;;;;;;;16.07;9.98;;;;;;;28.09;58.12;99601.92;1811894;77;21521;-77
2021/07/19 06:32:16;;;;;;;18.15;11.28;;;;;;;28.15;57.76;99604.14;1820218;77;20928;-76
2021/07/19 06:34:42;;;;;;;18.45;10.90;;;;;;;28.22;57.47;99596.62;1822811;77;21062;-75
2021/07/19 06:37:10;;;;;;;17.25;10.10;;;;;;;28.28;57.41;99605.62;1843018;77;21498;-75
2021/07/19 06:39:38;;;;;;;15.45;10.43;;;;;;;28.35;57.09;99607.63;1820786;78;22213;-76
2021/07/19 06:42:04;;;;;;;17.95;10.88;;;;;;;28.43;56.90;99605.81;1785636;77;21012;-77
2021/07/19 06:44:33;;;;;;;19.07;10.90;;;;;;;28.52;56.98;99605.63;1837357;77;20972;-76
2021/07/19 06:46:59;;;;;;;17.10;10.72;;;;;;;28.61;56.27;99610.05;1841501;77;21015;-76
2021/07/19 06:49:26;;;;;;;18.32;10.70;;;;;;;28.66;55.75;99600.56;1820893;78;21361;-76
2021/07/19 06:51:53;;;;;;;17.75;11.03;;;;;;;28.72;55.07;99603.62;1819058;77;22186;-74
2021/07/19 06:54:19;;;;;;;13.40;10.20;;;;;;;28.80;54.80;99601.25;1818102;77;20996;-77
2021/07/19 06:56:47;;;;;;;13.85;10.78;;;;;;;28.88;53.52;99607.28;1819573;77;20946;-76
2021/07/19 06:59:13;;;;;;;19.85;9.63;;;;;;;28.95;53.78;99614.69;1820961;78;21084;-76
2021/07/19 07:01:40;;;;;;;14.53;8.93;;;;;;;29.01;52.38;99610.94;1821180;78;21020;-73
2021/07/19 07:04:07;;;;;;;27.17;9.78;;;;;;;29.02;52.33;99607.95;1819055;78;21798;-73
2021/07/19 07:06:35;;;;;;;23.50;12.25;;;;;;;29.05;52.23;99612.89;1808106;77;20968;-73
2021/07/19 07:09:02;;;;;;;14.63;9.60;;;;;;;29.14;51.96;99612.37;1783957;77;20992;-73
2021/07/19 07:11:29;;;;;;;14.60;9.25;;;;;;;29.24;50.37;99612.44;1794646;77;22010;-74
2021/07/19 07:13:56;;;;;;;15.23;8.95;;;;;;;29.26;49.00;99606.22;1784474;77;20988;-74
2021/07/19 07:16:24;;;;;;;16.55;8.43;;;;;;;29.29;48.75;99609.77;1798615;77;21822;-75
2021/07/19 07:18:50;;;;;;;14.78;9.00;;;;;;;29.30;48.11;99614.94;1793503;79;21447;-75
2021/07/19 07:21:17;;;;;;;14.18;8.20;;;;;;;29.33;48.15;99607.59;1774759;80;21470;-75
2021/07/19 07:23:44;;;;;;;12.13;7.67;;;;;;;29.37;47.92;99607.91;1809930;78;21131;-74
2021/07/19 07:26:10;;;;;;;12.33;8.10;;;;;;;29.35;47.01;99608.72;1767035;81;21002;-75
2021/07/19 07:28:36;;;;;;;10.60;8.23;;;;;;;29.38;48.04;99613.63;1759117;81;21851;-74
2021/07/19 07:31:04;;;;;;;13.25;7.75;;;;;;;29.46;48.23;99608.23;1718472;81;20923;-75
2021/07/19 07:33:32;;;;;;;14.87;9.28;;;;;;;29.55;48.08;99613.48;1717342;83;21027;-75
2021/07/19 07:35:59;;;;;;;13.22;8.93;;;;;;;29.62;48.03;99607.23;1746043;82;21512;-75
2021/07/19 07:38:25;;;;;;;12.93;8.53;;;;;;;29.70;48.26;99614.08;1748032;79;21411;-75
2021/07/19 07:40:52;;;;;;;13.88;9.18;;;;;;;29.78;48.48;99621.19;1746027;82;22789;-75
2021/07/19 07:43:20;;;;;;;13.45;9.30;;;;;;;29.87;49.01;99616.05;1745936;82;21487;-75
2021/07/19 07:45:51;;;;;;;16.17;8.63;;;;;;;30.10;49.11;99616.14;1746035;82;20938;-75
2021/07/19 07:48:17;;;;;;;10.98;8.30;;;;;;;30.23;47.24;99617.55;1746116;82;20952;-74
2021/07/19 07:50:45;;;;;;;13.60;9.00;;;;;;;30.23;47.24;99617.55;1775006;80;20945;-74
2021/07/19 07:53:11;;;;;;;14.40;9.55;;;;;;;30.23;47.93;99615.64;1777083;80;22764;-73
2021/07/19 07:55:38;;;;;;;16.87;8.85;;;;;;;30.25;48.47;99623.00;1760239;80;20945;-74
2021/07/19 07:58:07;;;;;;;17.70;9.38;;;;;;;30.30;48.51;99616.73;1751673;82;21004;-73
2021/07/19 08:00:35;;;;;;;18.12;10.85;;;;;;;30.41;48.84;99619.22;1769977;80;20976;-73
2021/07/19 08:03:02;;;;;;;13.43;8.25;;;;;;;30.53;48.41;99618.14;1782431;79;20993;-74
2021/07/19 08:05:28;;;;;;;12.35;8.58;;;;;;;30.57;46.83;99611.86;1783501;80;21406;-74
2021/07/19 08:07:56;;;;;;;11.33;7.92;;;;;;;30.56;47.08;99616.23;1785254;80;20931;-74
2021/07/19 08:10:23;;;;;;;14.90;7.80;;;;;;;30.51;45.97;99611.60;1806831;79;21045;-75
2021/07/19 08:12:51;;;;;;;14.87;8.63;;;;;;;30.52;45.99;99606.97;1777660;79;21005;-74
2021/07/19 08:15:18;;;;;;;15.80;8.53;;;;;;;30.53;46.64;99611.33;1773551;80;20942;-74
2021/07/19 08:17:44;;;;;;;15.65;8.43;;;;;;;30.53;45.78;99612.14;1786434;80;22990;-75
2021/07/19 08:20:13;;;;;;;13.85;8.28;;;;;;;30.52;45.86;99613.78;1771945;80;20965;-75
2021/07/19 08:22:39;;;;;;;15.05;8.95;;;;;;;30.51;47.47;99606.16;1840935;77;20995;-77
2021/07/19 08:25:07;;;;;;;15.68;8.45;;;;;;;30.60;46.62;99610.52;1803110;78;20973;-75
2021/07/19 08:27:34;;;;;;;17.15;8.10;;;;;;;30.62;45.76;99608.34;1821239;78;21415;-76
2021/07/19 08:30:01;;;;;;;13.80;8.23;;;;;;;30.64;46.33;99612.45;1800759;77;22428;-76
2021/07/19 08:32:28;;;;;;;16.85;8.80;;;;;;;30.76;47.36;99608.08;1817952;77;20922;-76
2021/07/19 08:34:54;;;;;;;17.02;9.18;;;;;;;30.89;47.35;99606.19;1839898;77;20926;-75
2021/07/19 08:37:21;;;;;;;17.87;8.80;;;;;;;31.06;47.55;99603.14;1819298;77;21612;-76
2021/07/19 08:39:47;;;;;;;23.05;8.05;;;;;;;31.21;47.40;99601.80;1852338;77;20925;-75
2021/07/19 08:42:14;;;;;;;15.63;8.18;;;;;;;31.38;45.57;99597.39;1832920;77;21822;-76
2021/07/19 08:44:41;;;;;;;19.75;8.35;;;;;;;31.46;43.31;99590.52;1821449;78;21045;-81
2021/07/19 08:47:10;;;;;;;12.45;8.43;;;;;;;31.43;43.78;99590.53;1794840;77;21100;-76
2021/07/19 08:49:37;;;;;;;18.37;8.58;;;;;;;31.39;43.24;99590.02;1788232;80;21485;-76
2021/07/19 08:52:05;;;;;;;15.95;7.90;;;;;;;31.38;44.81;99580.20;1805040;77;21002;-75
2021/07/19 08:54:36;;;;;;;16.45;8.45;;;;;;;31.49;44.10;99576.34;1790476;77;21766;-76
2021/07/19 08:57:04;;;;;;;17.37;8.95;;;;;;;31.59;44.56;99574.37;1792928;78;21451;-75
2021/07/19 08:59:31;;;;;;;55.05;10.28;;;;;;;31.71;45.17;99564.48;1806477;78;21047;-75
2021/07/19 09:02:01;;;;;;;24.20;9.68;;;;;;;31.85;45.56;99557.36;1808416;78;21047;-75
2021/07/19 09:04:26;;;;;;;35.92;9.98;;;;;;;31.97;45.10;99558.93;1825823;77;20938;-76
2021/07/19 09:06:54;;;;;;;41.73;9.70;;;;;;;32.02;43.47;99547.95;1808223;77;21423;-76
2021/07/19 09:09:29;;;;;;;18.37;8.33;;;;;;;32.09;43.15;99549.83;1790525;78;20980;-76
2021/07/19 09:11:56;;;;;;;18.62;7.83;;;;;;;32.12;41.83;99539.14;1789689;78;21007;-76
2021/07/19 09:14:23;;;;;;;19.80;8.78;;;;;;;32.21;43.02;99530.34;1816537;77;20970;-76
2021/07/19 09:16:50;;;;;;;13.75;8.38;;;;;;;32.35;43.26;99526.72;1813791;77;21437;-77
2021/07/19 09:19:19;;;;;;;16.90;8.58;;;;;;;32.56;43.36;99533.38;1812346;78;22815;-77
2021/07/19 09:21:48;;;;;;;14.85;7.87;;;;;;;32.67;42.31;99531.62;1798196;77;20972;-77
2021/07/19 09:24:21;;;;;;;20.12;9.18;;;;;;;32.77;41.89;99524.42;1811819;77;20937;-76
2021/07/19 09:26:48;;;;;;;19.57;9.20;;;;;;;32.73;41.22;99521.47;1820452;77;20933;-76
2021/07/19 09:29:18;;;;;;;14.10;9.65;;;;;;;32.69;41.68;99528.04;1817483;77;21125;-76
2021/07/19 09:31:49;;;;;;;14.03;8.48;;;;;;;32.72;42.21;99532.95;1840418;77;21859;-77
2021/07/19 09:34:23;;;;;;;18.30;8.43;;;;;;;32.85;41.71;99523.83;1852652;77;20917;-77
2021/07/19 09:37:06;;;;;;;19.60;9.20;;;;;;;32.92;41.78;99525.68;1806552;77;21004;-76
2021/07/19 09:39:54;;;;;;;18.70;8.73;;;;;;;32.99;42.27;99531.05;1811273;78;21091;-77
2021/07/19 09:42:21;;;;;;;18.45;8.70;;;;;;;33.06;41.13;99529.34;1840937;77;21046;-75
2021/07/19 09:44:55;;;;;;;17.70;8.05;;;;;;;33.07;41.31;99530.16;1841869;77;21753;-75
2021/07/19 09:47:36;;;;;;;22.85;10.08;;;;;;;33.13;40.89;99535.29;1854181;77;21439;-75
2021/07/19 09:50:14;;;;;;;32.38;17.17;;;;;;;33.21;40.68;99537.95;1854295;77;21012;-75
2021/07/19 09:52:41;;;;;;;12.98;9.15;;;;;;;33.36;40.80;99539.14;1853354;77;21074;-75
2021/07/19 09:55:26;;;;;;;17.98;8.13;;;;;;;33.56;41.11;99542.18;1805205;77;20949;-76
2021/07/19 09:57:57;;;;;;;24.25;8.60;;;;;;;33.68;40.06;99541.19;1788708;80;21716;-76
2021/07/19 10:00:25;;;;;;;16.02;8.45;;;;;;;33.82;40.30;99539.92;1788807;80;20904;-75
2021/07/19 10:02:51;;;;;;;15.72;8.60;;;;;;;33.82;40.23;99544.03;1788787;80;21513;-76
2021/07/19 10:05:29;;;;;;;15.95;8.75;;;;;;;33.88;40.38;99544.81;1787769;80;21011;-76
2021/07/19 10:07:58;;;;;;;17.92;8.73;;;;;;;33.90;40.02;99539.29;1756127;80;20948;-75
2021/07/19 10:10:42;;;;;;;18.23;9.05;;;;;;;33.82;39.79;99539.92;1776815;79;22455;-76
2021/07/19 10:13:09;;;;;;;18.32;7.97;;;;;;;33.81;39.59;99537.73;1775736;80;21385;-76
2021/07/19 10:15:38;;;;;;;38.33;9.83;;;;;;;33.80;39.45;99540.22;1776100;79;21000;-74
2021/07/19 10:18:14;;;;;;;79.65;12.03;;;;;;;33.90;39.98;99533.00;1775825;79;21052;-74
2021/07/19 10:20:39;;;;;;;48.85;10.05;;;;;;;33.94;41.55;99537.58;1775609;79;21400;-74
2021/07/19 10:23:06;;;;;;;20.25;8.55;;;;;;;34.02;40.94;99532.80;1782107;79;21754;-74
2021/07/19 10:25:37;;;;;;;39.27;9.30;;;;;;;34.13;40.37;99539.75;1807513;79;20974;-74
2021/07/19 10:28:04;;;;;;;15.72;8.30;;;;;;;34.22;39.75;99534.97;1798994;79;21008;-74
2021/07/19 10:30:31;;;;;;;18.40;10.50;;;;;;;34.34;40.25;99536.13;1775811;80;20980;-74
2021/07/19 10:32:58;;;;;;;18.77;8.35;;;;;;;34.53;39.75;99536.11;1775855;80;20950;-74
2021/07/19 10:35:28;;;;;;;11.50;7.40;;;;;;;34.71;39.24;99538.55;1796244;77;21913;-76
2021/07/19 10:38:05;;;;;;;15.83;7.22;;;;;;;34.91;37.31;99536.02;1816108;77;20977;-77
2021/07/19 10:40:33;;;;;;;16.45;7.67;;;;;;;34.97;36.11;99537.56;1810704;77;21024;-77
2021/07/19 10:43:08;;;;;;;28.15;9.88;;;;;;;34.95;35.90;99536.50;1745230;82;21038;-77
2021/07/19 10:45:40;;;;;;;15.23;8.73;;;;;;;35.06;37.34;99535.74;1735318;81;21009;-75
2021/07/19 10:48:07;;;;;;;17.53;9.00;;;;;;;35.32;37.02;99532.47;1773924;79;21817;-75
2021/07/19 10:50:39;;;;;;;17.10;8.95;;;;;;;35.44;36.64;99533.63;1836881;77;21601;-75
2021/07/19 10:53:21;;;;;;;21.05;9.38;;;;;;;35.47;35.89;99539.88;1842419;77;21003;-76
2021/07/19 10:56:06;;;;;;;26.97;10.13;;;;;;;35.35;36.40;99538.75;1841876;77;21056;-76
2021/07/19 10:58:52;;;;;;;18.67;8.65;;;;;;;35.28;37.68;99534.46;1841734;77;20952;-76
2021/07/19 11:01:25;;;;;;;15.00;8.00;;;;;;;35.24;36.30;99534.02;1841483;77;21820;-76
2021/07/19 11:03:53;;;;;;;14.87;8.43;;;;;;;35.11;36.86;99535.63;1806400;79;21009;-76
2021/07/19 11:06:38;;;;;;;18.00;8.73;;;;;;;35.08;35.99;99536.80;1806610;79;21025;-75
2021/07/19 11:09:07;;;;;;;15.43;8.28;;;;;;;35.09;37.58;99542.55;1806406;79;21044;-76
2021/07/19 11:11:39;;;;;;;12.95;7.47;;;;;;;35.36;37.40;99551.35;1806698;79;20980;-73
2021/07/19 11:14:12;;;;;;;15.30;8.23;;;;;;;35.63;36.88;99554.11;1793265;77;22473;-76
2021/07/19 11:16:45;;;;;;;17.35;8.38;;;;;;;35.91;37.60;99556.27;1744944;81;21419;-77
2021/07/19 11:19:12;;;;;;;17.32;8.65;;;;;;;36.13;36.28;99543.92;1724997;82;21078;-76
2021/07/19 11:21:38;;;;;;;15.05;7.75;;;;;;;36.19;35.21;99539.09;1744525;80;21042;-76
2021/07/19 11:24:19;;;;;;;15.32;8.33;;;;;;;36.13;35.56;99537.05;1735396;82;21140;-76
2021/07/19 11:26:55;;;;;;;13.75;8.28;;;;;;;36.21;35.08;99542.37;1749452;82;22239;-76
2021/07/19 11:29:39;;;;;;;15.35;7.92;;;;;;;36.06;35.49;99538.59;1780047;80;21016;-78
2021/07/19 11:32:28;;;;;;;17.07;8.93;;;;;;;36.05;36.40;99539.72;1799901;79;21067;-75